sensor_id;sensor_type;location;lat;lon;timestamp;temperature;humidity
82836;DHT22;72587;50.746;8.246;2023-09-19T00:01:42;15.60;99.90
82836;DHT22;72587;50.746;8.246;2023-09-19T00:04:11;15.60;99.90
82836;DHT22;72587;50.746;8.246;2023-09-19T00:06:38;15.60;99.90
82836;DHT22;72587;50.746;8.246;2023-09-19T00:09:03;15.50;99.90
82836;DHT22;72587;50.746;8.246;2023-09-19T00:11:29;15.40;99.90
82836;DHT22;72587;50.746;8.246;2023-09-19T00:13:55;15.40;99.90
82836;DHT22;72587;50.746;8.246;2023-09-19T00:16:24;15.30;99.90
82836;DHT22;72587;50.746;8.246;2023-09-19T00:18:51;15.20;99.90
82836;DHT22;72587;50.746;8.246;2023-09-19T00:21:16;15.10;99.90
82836;DHT22;72587;50.746;8.246;2023-09-19T00:23:42;15.00;99.90
82836;DHT22;72587;50.746;8.246;2023-09-19T00:26:07;14.90;99.90
82836;DHT22;72587;50.746;8.246;2023-09-19T00:28:33;14.90;99.90
82836;DHT22;72587;50.746;8.246;2023-09-19T00:30:59;14.80;99.90
82836;DHT22;72587;50.746;8.246;2023-09-19T00:33:27;14.80;99.90
82836;DHT22;72587;50.746;8.246;2023-09-19T00:35:56;14.70;99.90
82836;DHT22;72587;50.746;8.246;2023-09-19T00:38:23;14.60;99.90
82836;DHT22;72587;50.746;8.246;2023-09-19T00:40:53;14.60;99.90
82836;DHT22;72587;50.746;8.246;2023-09-19T00:43:19;14.60;99.90
82836;DHT22;72587;50.746;8.246;2023-09-19T00:45:48;14.50;99.90
82836;DHT22;72587;50.746;8.246;2023-09-19T00:48:15;14.50;99.90
82836;DHT22;72587;50.746;8.246;2023-09-19T00:50:42;14.40;99.90
82836;DHT22;72587;50.746;8.246;2023-09-19T00:53:09;14.30;99.90
82836;DHT22;72587;50.746;8.246;2023-09-19T00:55:39;14.30;99.90
82836;DHT22;72587;50.746;8.246;2023-09-19T00:58:06;14.30;99.90
82836;DHT22;72587;50.746;8.246;2023-09-19T01:00:33;14.20;99.90
82836;DHT22;72587;50.746;8.246;2023-09-19T01:03:00;14.20;99.90
82836;DHT22;72587;50.746;8.246;2023-09-19T01:05:27;14.20;99.90
82836;DHT22;72587;50.746;8.246;2023-09-19T01:07:53;14.20;99.90
82836;DHT22;72587;50.746;8.246;2023-09-19T01:10:19;14.10;99.90
82836;DHT22;72587;50.746;8.246;2023-09-19T01:13:04;14.00;99.90
82836;DHT22;72587;50.746;8.246;2023-09-19T01:18:29;13.90;99.90
82836;DHT22;72587;50.746;8.246;2023-09-19T01:21:28;13.90;99.90
82836;DHT22;72587;50.746;8.246;2023-09-19T01:29:34;13.70;99.90
82836;DHT22;72587;50.746;8.246;2023-09-19T01:32:05;13.70;99.90
82836;DHT22;72587;50.746;8.246;2023-09-19T01:35:04;13.60;99.90
82836;DHT22;72587;50.746;8.246;2023-09-19T01:37:30;13.60;99.90
82836;DHT22;72587;50.746;8.246;2023-09-19T01:40:06;13.50;99.90
82836;DHT22;72587;50.746;8.246;2023-09-19T01:47:52;13.50;99.90
82836;DHT22;72587;50.746;8.246;2023-09-19T01:50:31;13.50;99.90
82836;DHT22;72587;50.746;8.246;2023-09-19T01:53:07;13.50;99.90
82836;DHT22;72587;50.746;8.246;2023-09-19T01:55:43;13.50;99.90
82836;DHT22;72587;50.746;8.246;2023-09-19T01:58:18;13.40;99.90
82836;DHT22;72587;50.746;8.246;2023-09-19T02:00:48;13.40;99.90
82836;DHT22;72587;50.746;8.246;2023-09-19T02:03:17;13.40;99.90
82836;DHT22;72587;50.746;8.246;2023-09-19T02:05:52;13.40;99.90
82836;DHT22;72587;50.746;8.246;2023-09-19T02:08:19;13.40;99.90
82836;DHT22;72587;50.746;8.246;2023-09-19T02:10:45;13.40;99.90
82836;DHT22;72587;50.746;8.246;2023-09-19T02:13:18;13.40;99.90
82836;DHT22;72587;50.746;8.246;2023-09-19T02:15:44;13.40;99.90
82836;DHT22;72587;50.746;8.246;2023-09-19T02:18:11;13.50;99.90
82836;DHT22;72587;50.746;8.246;2023-09-19T02:20:40;13.50;99.90
82836;DHT22;72587;50.746;8.246;2023-09-19T02:23:06;13.50;99.90
82836;DHT22;72587;50.746;8.246;2023-09-19T02:25:31;13.50;99.90
82836;DHT22;72587;50.746;8.246;2023-09-19T02:27:57;13.50;99.90
82836;DHT22;72587;50.746;8.246;2023-09-19T02:30:24;13.50;99.90
82836;DHT22;72587;50.746;8.246;2023-09-19T02:32:51;13.50;99.90
82836;DHT22;72587;50.746;8.246;2023-09-19T02:35:17;13.50;99.90
82836;DHT22;72587;50.746;8.246;2023-09-19T02:37:45;13.50;99.90
82836;DHT22;72587;50.746;8.246;2023-09-19T02:40:11;13.50;99.90
82836;DHT22;72587;50.746;8.246;2023-09-19T02:42:54;13.60;99.90
82836;DHT22;72587;50.746;8.246;2023-09-19T02:45:20;13.50;99.90
82836;DHT22;72587;50.746;8.246;2023-09-19T02:47:46;13.60;99.90
82836;DHT22;72587;50.746;8.246;2023-09-19T02:50:13;13.50;99.90
82836;DHT22;72587;50.746;8.246;2023-09-19T02:52:45;13.60;99.90
82836;DHT22;72587;50.746;8.246;2023-09-19T02:55:15;13.60;99.90
82836;DHT22;72587;50.746;8.246;2023-09-19T02:57:52;13.70;99.90
82836;DHT22;72587;50.746;8.246;2023-09-19T03:00:20;13.70;99.90
82836;DHT22;72587;50.746;8.246;2023-09-19T03:02:53;13.80;99.90
82836;DHT22;72587;50.746;8.246;2023-09-19T03:05:20;13.80;99.90
82836;DHT22;72587;50.746;8.246;2023-09-19T03:07:47;13.80;99.90
82836;DHT22;72587;50.746;8.246;2023-09-19T03:10:16;13.80;99.90
82836;DHT22;72587;50.746;8.246;2023-09-19T03:12:42;13.80;99.90
82836;DHT22;72587;50.746;8.246;2023-09-19T03:15:08;13.80;99.90
82836;DHT22;72587;50.746;8.246;2023-09-19T03:17:36;13.80;99.90
82836;DHT22;72587;50.746;8.246;2023-09-19T03:20:03;13.80;99.90
82836;DHT22;72587;50.746;8.246;2023-09-19T03:22:34;13.70;99.90
82836;DHT22;72587;50.746;8.246;2023-09-19T03:24:59;13.80;99.90
82836;DHT22;72587;50.746;8.246;2023-09-19T03:27:26;13.80;99.90
82836;DHT22;72587;50.746;8.246;2023-09-19T03:29:52;13.70;99.90
82836;DHT22;72587;50.746;8.246;2023-09-19T03:32:19;13.60;99.90
82836;DHT22;72587;50.746;8.246;2023-09-19T03:34:44;13.70;99.90
82836;DHT22;72587;50.746;8.246;2023-09-19T03:37:10;13.70;99.90
82836;DHT22;72587;50.746;8.246;2023-09-19T03:39:36;13.70;99.90
82836;DHT22;72587;50.746;8.246;2023-09-19T03:42:02;13.60;99.90
82836;DHT22;72587;50.746;8.246;2023-09-19T03:44:29;13.60;99.90
82836;DHT22;72587;50.746;8.246;2023-09-19T03:46:55;13.60;99.90
82836;DHT22;72587;50.746;8.246;2023-09-19T03:49:22;13.60;99.90
82836;DHT22;72587;50.746;8.246;2023-09-19T03:51:48;13.60;99.90
82836;DHT22;72587;50.746;8.246;2023-09-19T03:54:13;13.60;99.90
82836;DHT22;72587;50.746;8.246;2023-09-19T03:56:39;13.60;99.90
82836;DHT22;72587;50.746;8.246;2023-09-19T03:59:04;13.50;99.90
82836;DHT22;72587;50.746;8.246;2023-09-19T04:01:30;13.50;99.90
82836;DHT22;72587;50.746;8.246;2023-09-19T04:03:58;13.50;99.90
82836;DHT22;72587;50.746;8.246;2023-09-19T04:06:24;13.40;99.90
82836;DHT22;72587;50.746;8.246;2023-09-19T04:08:50;13.50;99.90
82836;DHT22;72587;50.746;8.246;2023-09-19T04:11:15;13.50;99.90
82836;DHT22;72587;50.746;8.246;2023-09-19T04:13:41;13.50;99.90
82836;DHT22;72587;50.746;8.246;2023-09-19T04:16:07;13.40;99.90
82836;DHT22;72587;50.746;8.246;2023-09-19T04:18:33;13.30;99.90
82836;DHT22;72587;50.746;8.246;2023-09-19T04:21:02;13.30;99.90
82836;DHT22;72587;50.746;8.246;2023-09-19T04:23:29;13.30;99.90
82836;DHT22;72587;50.746;8.246;2023-09-19T04:25:55;13.30;99.90
82836;DHT22;72587;50.746;8.246;2023-09-19T04:28:20;13.30;99.90
82836;DHT22;72587;50.746;8.246;2023-09-19T04:30:46;13.30;99.90
82836;DHT22;72587;50.746;8.246;2023-09-19T04:33:11;13.20;99.90
82836;DHT22;72587;50.746;8.246;2023-09-19T04:35:40;13.10;99.90
82836;DHT22;72587;50.746;8.246;2023-09-19T04:38:08;13.10;99.90
82836;DHT22;72587;50.746;8.246;2023-09-19T04:40:33;13.10;99.90
82836;DHT22;72587;50.746;8.246;2023-09-19T04:42:59;12.90;99.90
82836;DHT22;72587;50.746;8.246;2023-09-19T04:45:26;12.90;99.90
82836;DHT22;72587;50.746;8.246;2023-09-19T04:47:52;12.90;99.90
82836;DHT22;72587;50.746;8.246;2023-09-19T04:50:19;12.90;99.90
82836;DHT22;72587;50.746;8.246;2023-09-19T04:52:49;12.80;99.90
82836;DHT22;72587;50.746;8.246;2023-09-19T04:55:16;12.80;99.90
82836;DHT22;72587;50.746;8.246;2023-09-19T04:57:46;12.80;99.90
82836;DHT22;72587;50.746;8.246;2023-09-19T05:00:13;12.80;99.90
82836;DHT22;72587;50.746;8.246;2023-09-19T05:02:40;12.70;99.90
82836;DHT22;72587;50.746;8.246;2023-09-19T05:05:07;12.80;99.90
82836;DHT22;72587;50.746;8.246;2023-09-19T05:07:33;12.80;99.90
82836;DHT22;72587;50.746;8.246;2023-09-19T05:09:59;12.70;99.90
82836;DHT22;72587;50.746;8.246;2023-09-19T05:12:26;12.70;99.90
82836;DHT22;72587;50.746;8.246;2023-09-19T05:14:52;12.70;99.90
82836;DHT22;72587;50.746;8.246;2023-09-19T05:17:18;12.70;99.90
82836;DHT22;72587;50.746;8.246;2023-09-19T05:19:44;12.70;99.90
82836;DHT22;72587;50.746;8.246;2023-09-19T05:22:11;12.60;99.90
82836;DHT22;72587;50.746;8.246;2023-09-19T05:24:37;12.60;99.90
82836;DHT22;72587;50.746;8.246;2023-09-19T05:27:04;12.60;99.90
82836;DHT22;72587;50.746;8.246;2023-09-19T05:29:33;12.70;99.90
82836;DHT22;72587;50.746;8.246;2023-09-19T05:31:59;12.70;99.90
82836;DHT22;72587;50.746;8.246;2023-09-19T05:34:24;12.70;99.90
82836;DHT22;72587;50.746;8.246;2023-09-19T05:36:55;12.70;99.90
82836;DHT22;72587;50.746;8.246;2023-09-19T05:39:21;12.70;99.90
82836;DHT22;72587;50.746;8.246;2023-09-19T05:41:48;12.70;99.90
82836;DHT22;72587;50.746;8.246;2023-09-19T05:44:14;12.70;99.90
82836;DHT22;72587;50.746;8.246;2023-09-19T05:46:40;12.80;99.90
82836;DHT22;72587;50.746;8.246;2023-09-19T05:49:05;12.80;99.90
82836;DHT22;72587;50.746;8.246;2023-09-19T05:51:31;12.90;99.90
82836;DHT22;72587;50.746;8.246;2023-09-19T05:53:56;12.90;99.90
82836;DHT22;72587;50.746;8.246;2023-09-19T05:56:23;13.00;99.90
82836;DHT22;72587;50.746;8.246;2023-09-19T05:58:49;13.00;99.90
82836;DHT22;72587;50.746;8.246;2023-09-19T06:01:15;13.10;99.90
82836;DHT22;72587;50.746;8.246;2023-09-19T06:03:41;13.10;99.90
82836;DHT22;72587;50.746;8.246;2023-09-19T06:06:07;13.20;99.90
82836;DHT22;72587;50.746;8.246;2023-09-19T06:08:33;13.20;99.90
82836;DHT22;72587;50.746;8.246;2023-09-19T06:10:59;13.30;99.90
82836;DHT22;72587;50.746;8.246;2023-09-19T06:13:26;13.40;99.90
82836;DHT22;72587;50.746;8.246;2023-09-19T06:15:52;13.40;99.90
82836;DHT22;72587;50.746;8.246;2023-09-19T06:18:18;13.50;99.90
82836;DHT22;72587;50.746;8.246;2023-09-19T06:20:48;13.60;99.90
82836;DHT22;72587;50.746;8.246;2023-09-19T06:23:16;13.70;99.90
82836;DHT22;72587;50.746;8.246;2023-09-19T06:25:42;13.80;99.90
82836;DHT22;72587;50.746;8.246;2023-09-19T06:28:09;13.90;99.90
82836;DHT22;72587;50.746;8.246;2023-09-19T06:30:37;14.00;99.90
82836;DHT22;72587;50.746;8.246;2023-09-19T06:33:06;14.10;99.90
82836;DHT22;72587;50.746;8.246;2023-09-19T06:35:33;14.20;99.90
82836;DHT22;72587;50.746;8.246;2023-09-19T06:37:59;14.30;99.90
82836;DHT22;72587;50.746;8.246;2023-09-19T06:40:28;14.50;99.90
82836;DHT22;72587;50.746;8.246;2023-09-19T06:42:56;14.50;99.90
82836;DHT22;72587;50.746;8.246;2023-09-19T06:45:22;14.70;99.90
82836;DHT22;72587;50.746;8.246;2023-09-19T06:47:49;14.70;99.90
82836;DHT22;72587;50.746;8.246;2023-09-19T06:50:16;14.90;99.90
82836;DHT22;72587;50.746;8.246;2023-09-19T06:52:44;15.00;99.90
82836;DHT22;72587;50.746;8.246;2023-09-19T06:55:11;15.10;99.90
82836;DHT22;72587;50.746;8.246;2023-09-19T06:57:39;15.20;99.90
82836;DHT22;72587;50.746;8.246;2023-09-19T07:00:06;15.30;99.90
82836;DHT22;72587;50.746;8.246;2023-09-19T07:02:44;15.40;99.90
82836;DHT22;72587;50.746;8.246;2023-09-19T07:05:09;15.30;99.90
82836;DHT22;72587;50.746;8.246;2023-09-19T07:07:35;15.50;99.90
82836;DHT22;72587;50.746;8.246;2023-09-19T07:10:02;15.60;99.90
82836;DHT22;72587;50.746;8.246;2023-09-19T07:12:31;15.80;99.90
82836;DHT22;72587;50.746;8.246;2023-09-19T07:14:56;15.80;99.90
82836;DHT22;72587;50.746;8.246;2023-09-19T07:17:22;15.80;99.90
82836;DHT22;72587;50.746;8.246;2023-09-19T07:19:49;15.90;99.90
82836;DHT22;72587;50.746;8.246;2023-09-19T07:22:15;16.00;99.90
82836;DHT22;72587;50.746;8.246;2023-09-19T07:24:41;15.90;99.90
82836;DHT22;72587;50.746;8.246;2023-09-19T07:27:07;16.00;99.90
82836;DHT22;72587;50.746;8.246;2023-09-19T07:29:32;16.20;99.90
82836;DHT22;72587;50.746;8.246;2023-09-19T07:31:58;16.20;99.90
82836;DHT22;72587;50.746;8.246;2023-09-19T07:34:23;16.40;99.90
82836;DHT22;72587;50.746;8.246;2023-09-19T07:36:49;16.50;99.90
82836;DHT22;72587;50.746;8.246;2023-09-19T07:39:15;16.60;99.90
82836;DHT22;72587;50.746;8.246;2023-09-19T07:41:41;16.70;99.90
82836;DHT22;72587;50.746;8.246;2023-09-19T07:44:07;17.00;99.90
82836;DHT22;72587;50.746;8.246;2023-09-19T07:46:34;17.10;99.90
82836;DHT22;72587;50.746;8.246;2023-09-19T07:48:59;17.30;99.90
82836;DHT22;72587;50.746;8.246;2023-09-19T07:51:25;17.20;99.90
82836;DHT22;72587;50.746;8.246;2023-09-19T07:53:52;17.20;99.90
82836;DHT22;72587;50.746;8.246;2023-09-19T07:56:18;17.20;99.90
82836;DHT22;72587;50.746;8.246;2023-09-19T07:58:45;17.30;99.90
82836;DHT22;72587;50.746;8.246;2023-09-19T08:01:11;17.50;99.90
82836;DHT22;72587;50.746;8.246;2023-09-19T08:03:39;17.80;99.90
82836;DHT22;72587;50.746;8.246;2023-09-19T08:06:06;17.80;99.90
82836;DHT22;72587;50.746;8.246;2023-09-19T08:08:35;17.60;99.90
82836;DHT22;72587;50.746;8.246;2023-09-19T08:11:03;17.40;99.90
82836;DHT22;72587;50.746;8.246;2023-09-19T08:13:42;17.50;99.90
82836;DHT22;72587;50.746;8.246;2023-09-19T08:16:11;17.30;99.90
82836;DHT22;72587;50.746;8.246;2023-09-19T08:18:37;17.30;99.90
82836;DHT22;72587;50.746;8.246;2023-09-19T08:21:05;17.40;99.90
82836;DHT22;72587;50.746;8.246;2023-09-19T08:23:33;17.50;99.90
82836;DHT22;72587;50.746;8.246;2023-09-19T08:25:59;17.60;99.90
82836;DHT22;72587;50.746;8.246;2023-09-19T08:28:28;17.70;99.90
82836;DHT22;72587;50.746;8.246;2023-09-19T08:30:55;17.70;99.90
82836;DHT22;72587;50.746;8.246;2023-09-19T08:33:20;17.90;99.90
82836;DHT22;72587;50.746;8.246;2023-09-19T08:35:46;18.00;99.90
82836;DHT22;72587;50.746;8.246;2023-09-19T08:38:11;18.20;99.90
82836;DHT22;72587;50.746;8.246;2023-09-19T08:40:39;18.60;99.90
82836;DHT22;72587;50.746;8.246;2023-09-19T08:43:07;18.70;99.90
82836;DHT22;72587;50.746;8.246;2023-09-19T08:45:33;18.80;99.90
82836;DHT22;72587;50.746;8.246;2023-09-19T08:48:25;18.70;99.90
82836;DHT22;72587;50.746;8.246;2023-09-19T08:51:03;18.70;99.90
82836;DHT22;72587;50.746;8.246;2023-09-19T08:53:41;18.50;99.90
82836;DHT22;72587;50.746;8.246;2023-09-19T08:56:10;18.50;99.90
82836;DHT22;72587;50.746;8.246;2023-09-19T08:58:50;18.60;99.90
82836;DHT22;72587;50.746;8.246;2023-09-19T09:01:18;18.70;99.90
82836;DHT22;72587;50.746;8.246;2023-09-19T09:03:53;19.10;99.90
82836;DHT22;72587;50.746;8.246;2023-09-19T09:06:20;19.20;99.90
82836;DHT22;72587;50.746;8.246;2023-09-19T09:08:46;19.20;99.90
82836;DHT22;72587;50.746;8.246;2023-09-19T09:11:13;19.00;99.90
82836;DHT22;72587;50.746;8.246;2023-09-19T09:13:40;18.90;99.90
82836;DHT22;72587;50.746;8.246;2023-09-19T09:16:07;18.90;99.90
82836;DHT22;72587;50.746;8.246;2023-09-19T09:18:33;19.10;99.90
82836;DHT22;72587;50.746;8.246;2023-09-19T09:20:58;19.20;99.90
82836;DHT22;72587;50.746;8.246;2023-09-19T09:23:24;19.30;99.90
82836;DHT22;72587;50.746;8.246;2023-09-19T09:25:54;19.60;99.90
82836;DHT22;72587;50.746;8.246;2023-09-19T09:28:22;20.00;99.90
82836;DHT22;72587;50.746;8.246;2023-09-19T09:30:49;20.20;99.90
82836;DHT22;72587;50.746;8.246;2023-09-19T09:33:16;20.30;99.90
82836;DHT22;72587;50.746;8.246;2023-09-19T09:36:02;20.30;99.90
82836;DHT22;72587;50.746;8.246;2023-09-19T09:38:48;20.40;99.90
82836;DHT22;72587;50.746;8.246;2023-09-19T09:41:16;20.80;99.90
82836;DHT22;72587;50.746;8.246;2023-09-19T09:43:53;20.90;99.90
82836;DHT22;72587;50.746;8.246;2023-09-19T09:46:20;21.10;99.90
82836;DHT22;72587;50.746;8.246;2023-09-19T09:51:43;21.10;99.90
82836;DHT22;72587;50.746;8.246;2023-09-19T09:54:12;20.90;99.90
82836;DHT22;72587;50.746;8.246;2023-09-19T09:56:57;20.50;99.90
82836;DHT22;72587;50.746;8.246;2023-09-19T10:02:35;20.20;99.90
82836;DHT22;72587;50.746;8.246;2023-09-19T10:05:19;20.30;99.90
82836;DHT22;72587;50.746;8.246;2023-09-19T10:07:54;20.40;99.90
82836;DHT22;72587;50.746;8.246;2023-09-19T10:10:38;20.90;99.90
82836;DHT22;72587;50.746;8.246;2023-09-19T10:13:16;21.30;99.90
82836;DHT22;72587;50.746;8.246;2023-09-19T10:15:51;21.50;99.90
82836;DHT22;72587;50.746;8.246;2023-09-19T10:18:24;21.40;99.90
82836;DHT22;72587;50.746;8.246;2023-09-19T10:20:50;21.60;99.90
82836;DHT22;72587;50.746;8.246;2023-09-19T10:23:20;21.50;99.90
82836;DHT22;72587;50.746;8.246;2023-09-19T10:25:49;21.90;99.90
82836;DHT22;72587;50.746;8.246;2023-09-19T10:28:16;21.80;99.90
82836;DHT22;72587;50.746;8.246;2023-09-19T10:30:48;21.20;99.90
82836;DHT22;72587;50.746;8.246;2023-09-19T10:33:16;20.90;99.90
82836;DHT22;72587;50.746;8.246;2023-09-19T10:35:44;20.90;99.90
82836;DHT22;72587;50.746;8.246;2023-09-19T10:38:11;20.80;99.90
82836;DHT22;72587;50.746;8.246;2023-09-19T10:40:38;20.80;99.90
82836;DHT22;72587;50.746;8.246;2023-09-19T10:43:22;20.80;99.90
82836;DHT22;72587;50.746;8.246;2023-09-19T10:45:50;20.70;99.90
82836;DHT22;72587;50.746;8.246;2023-09-19T10:48:18;20.80;99.90
82836;DHT22;72587;50.746;8.246;2023-09-19T10:50:51;21.10;99.90
82836;DHT22;72587;50.746;8.246;2023-09-19T10:53:18;21.40;99.90
82836;DHT22;72587;50.746;8.246;2023-09-19T10:55:51;21.30;99.90
82836;DHT22;72587;50.746;8.246;2023-09-19T10:58:27;20.90;99.90
82836;DHT22;72587;50.746;8.246;2023-09-19T11:00:58;20.70;99.90
82836;DHT22;72587;50.746;8.246;2023-09-19T11:03:28;20.40;99.90
82836;DHT22;72587;50.746;8.246;2023-09-19T11:06:04;20.30;99.90
82836;DHT22;72587;50.746;8.246;2023-09-19T11:08:46;20.20;99.90
82836;DHT22;72587;50.746;8.246;2023-09-19T11:11:48;20.30;99.90
82836;DHT22;72587;50.746;8.246;2023-09-19T11:22:23;20.50;99.90
82836;DHT22;72587;50.746;8.246;2023-09-19T11:24:51;20.40;99.90
82836;DHT22;72587;50.746;8.246;2023-09-19T11:27:17;20.70;99.90
82836;DHT22;72587;50.746;8.246;2023-09-19T11:29:44;20.70;99.90
82836;DHT22;72587;50.746;8.246;2023-09-19T11:32:10;20.90;99.90
82836;DHT22;72587;50.746;8.246;2023-09-19T11:40:09;21.40;99.90
82836;DHT22;72587;50.746;8.246;2023-09-19T11:42:48;21.50;99.90
82836;DHT22;72587;50.746;8.246;2023-09-19T11:48:15;21.10;99.90
82836;DHT22;72587;50.746;8.246;2023-09-19T11:50:45;21.10;99.90
82836;DHT22;72587;50.746;8.246;2023-09-19T11:53:12;21.10;99.90
82836;DHT22;72587;50.746;8.246;2023-09-19T11:55:39;21.10;99.90
82836;DHT22;72587;50.746;8.246;2023-09-19T11:58:07;20.70;99.90
82836;DHT22;72587;50.746;8.246;2023-09-19T12:00:34;20.60;99.90
82836;DHT22;72587;50.746;8.246;2023-09-19T12:03:05;20.40;99.90
82836;DHT22;72587;50.746;8.246;2023-09-19T12:05:33;20.10;99.90
82836;DHT22;72587;50.746;8.246;2023-09-19T12:07:59;20.10;99.90
82836;DHT22;72587;50.746;8.246;2023-09-19T12:10:25;20.10;99.90
82836;DHT22;72587;50.746;8.246;2023-09-19T12:12:50;20.30;99.90
82836;DHT22;72587;50.746;8.246;2023-09-19T12:15:28;20.20;99.90
82836;DHT22;72587;50.746;8.246;2023-09-19T12:18:00;20.20;99.90
82836;DHT22;72587;50.746;8.246;2023-09-19T12:20:41;20.50;99.90
82836;DHT22;72587;50.746;8.246;2023-09-19T12:23:13;20.60;99.90
82836;DHT22;72587;50.746;8.246;2023-09-19T12:25:43;20.80;99.90
82836;DHT22;72587;50.746;8.246;2023-09-19T12:28:18;20.90;99.90
82836;DHT22;72587;50.746;8.246;2023-09-19T12:30:44;21.00;99.90
82836;DHT22;72587;50.746;8.246;2023-09-19T12:33:20;21.00;99.90
82836;DHT22;72587;50.746;8.246;2023-09-19T12:35:47;21.20;99.90
82836;DHT22;72587;50.746;8.246;2023-09-19T12:38:25;21.40;99.90
82836;DHT22;72587;50.746;8.246;2023-09-19T12:40:56;21.50;99.90
82836;DHT22;72587;50.746;8.246;2023-09-19T12:43:25;21.50;99.90
82836;DHT22;72587;50.746;8.246;2023-09-19T12:45:52;21.50;99.90
82836;DHT22;72587;50.746;8.246;2023-09-19T12:48:26;21.60;99.90
82836;DHT22;72587;50.746;8.246;2023-09-19T12:53:41;21.60;99.90
82836;DHT22;72587;50.746;8.246;2023-09-19T12:56:13;21.60;99.90
82836;DHT22;72587;50.746;8.246;2023-09-19T12:58:53;21.80;99.90
82836;DHT22;72587;50.746;8.246;2023-09-19T13:01:25;22.00;99.90
82836;DHT22;72587;50.746;8.246;2023-09-19T13:06:38;22.60;99.90
82836;DHT22;72587;50.746;8.246;2023-09-19T13:09:09;22.60;99.90
82836;DHT22;72587;50.746;8.246;2023-09-19T13:11:37;22.50;99.90
82836;DHT22;72587;50.746;8.246;2023-09-19T13:14:26;22.60;99.90
82836;DHT22;72587;50.746;8.246;2023-09-19T13:17:04;22.60;99.90
82836;DHT22;72587;50.746;8.246;2023-09-19T13:19:41;22.00;99.90
82836;DHT22;72587;50.746;8.246;2023-09-19T13:22:45;22.10;99.90
82836;DHT22;72587;50.746;8.246;2023-09-19T13:25:18;22.20;99.90
82836;DHT22;72587;50.746;8.246;2023-09-19T13:27:48;22.10;99.90
82836;DHT22;72587;50.746;8.246;2023-09-19T13:30:16;22.00;99.90
82836;DHT22;72587;50.746;8.246;2023-09-19T13:32:42;22.00;99.90
82836;DHT22;72587;50.746;8.246;2023-09-19T13:35:09;21.80;99.90
82836;DHT22;72587;50.746;8.246;2023-09-19T13:37:35;22.00;99.90
82836;DHT22;72587;50.746;8.246;2023-09-19T13:40:08;22.00;99.90
82836;DHT22;72587;50.746;8.246;2023-09-19T13:42:34;21.80;99.90
82836;DHT22;72587;50.746;8.246;2023-09-19T13:45:02;21.80;99.90
82836;DHT22;72587;50.746;8.246;2023-09-19T13:47:30;22.10;99.90
82836;DHT22;72587;50.746;8.246;2023-09-19T13:49:55;22.40;99.90
82836;DHT22;72587;50.746;8.246;2023-09-19T13:52:21;22.40;99.90
82836;DHT22;72587;50.746;8.246;2023-09-19T13:54:49;22.50;99.90
82836;DHT22;72587;50.746;8.246;2023-09-19T13:57:15;22.70;99.90
82836;DHT22;72587;50.746;8.246;2023-09-19T13:59:42;22.80;99.90
82836;DHT22;72587;50.746;8.246;2023-09-19T14:02:07;22.80;99.90
82836;DHT22;72587;50.746;8.246;2023-09-19T14:04:33;22.80;99.90
82836;DHT22;72587;50.746;8.246;2023-09-19T14:07:00;22.70;99.90
82836;DHT22;72587;50.746;8.246;2023-09-19T14:09:26;22.60;99.90
82836;DHT22;72587;50.746;8.246;2023-09-19T14:11:52;22.40;99.90
82836;DHT22;72587;50.746;8.246;2023-09-19T14:14:20;22.40;99.90
82836;DHT22;72587;50.746;8.246;2023-09-19T14:16:49;22.50;99.90
82836;DHT22;72587;50.746;8.246;2023-09-19T14:19:15;22.40;99.90
82836;DHT22;72587;50.746;8.246;2023-09-19T14:21:42;22.20;99.90
82836;DHT22;72587;50.746;8.246;2023-09-19T14:24:07;22.40;99.90
82836;DHT22;72587;50.746;8.246;2023-09-19T14:26:38;22.40;99.90
82836;DHT22;72587;50.746;8.246;2023-09-19T14:29:03;22.60;99.90
82836;DHT22;72587;50.746;8.246;2023-09-19T14:31:29;22.70;99.90
82836;DHT22;72587;50.746;8.246;2023-09-19T14:33:55;22.80;99.90
82836;DHT22;72587;50.746;8.246;2023-09-19T14:36:22;22.90;99.90
82836;DHT22;72587;50.746;8.246;2023-09-19T14:38:52;22.80;99.90
82836;DHT22;72587;50.746;8.246;2023-09-19T14:41:22;22.60;99.90
82836;DHT22;72587;50.746;8.246;2023-09-19T14:43:49;22.70;99.90
82836;DHT22;72587;50.746;8.246;2023-09-19T14:46:15;22.70;99.90
82836;DHT22;72587;50.746;8.246;2023-09-19T14:48:41;22.60;99.90
82836;DHT22;72587;50.746;8.246;2023-09-19T14:51:08;22.70;99.90
82836;DHT22;72587;50.746;8.246;2023-09-19T14:53:37;22.70;99.90
82836;DHT22;72587;50.746;8.246;2023-09-19T14:56:04;22.60;99.90
82836;DHT22;72587;50.746;8.246;2023-09-19T14:58:31;22.40;99.90
82836;DHT22;72587;50.746;8.246;2023-09-19T15:01:11;22.40;99.90
82836;DHT22;72587;50.746;8.246;2023-09-19T15:03:38;22.60;99.90
82836;DHT22;72587;50.746;8.246;2023-09-19T15:06:07;22.80;99.90
82836;DHT22;72587;50.746;8.246;2023-09-19T15:08:35;23.00;99.90
82836;DHT22;72587;50.746;8.246;2023-09-19T15:11:09;23.10;99.90
82836;DHT22;72587;50.746;8.246;2023-09-19T15:13:36;23.00;99.90
82836;DHT22;72587;50.746;8.246;2023-09-19T15:16:06;22.70;99.90
82836;DHT22;72587;50.746;8.246;2023-09-19T15:18:40;22.60;99.90
82836;DHT22;72587;50.746;8.246;2023-09-19T15:21:08;22.50;99.90
82836;DHT22;72587;50.746;8.246;2023-09-19T15:23:35;22.50;99.90
82836;DHT22;72587;50.746;8.246;2023-09-19T15:26:03;22.50;99.90
82836;DHT22;72587;50.746;8.246;2023-09-19T15:28:29;22.40;99.90
82836;DHT22;72587;50.746;8.246;2023-09-19T15:31:07;22.30;99.90
82836;DHT22;72587;50.746;8.246;2023-09-19T15:33:33;22.10;99.90
82836;DHT22;72587;50.746;8.246;2023-09-19T15:36:09;22.00;99.90
82836;DHT22;72587;50.746;8.246;2023-09-19T15:38:56;22.00;99.90
82836;DHT22;72587;50.746;8.246;2023-09-19T15:41:24;22.10;99.90
82836;DHT22;72587;50.746;8.246;2023-09-19T15:43:49;22.20;99.90
82836;DHT22;72587;50.746;8.246;2023-09-19T15:46:15;22.30;99.90
82836;DHT22;72587;50.746;8.246;2023-09-19T15:48:41;22.40;99.90
82836;DHT22;72587;50.746;8.246;2023-09-19T15:51:07;22.50;99.90
82836;DHT22;72587;50.746;8.246;2023-09-19T15:53:43;22.00;99.90
82836;DHT22;72587;50.746;8.246;2023-09-19T15:56:10;21.80;99.90
82836;DHT22;72587;50.746;8.246;2023-09-19T15:58:37;21.80;99.90
82836;DHT22;72587;50.746;8.246;2023-09-19T16:01:05;21.70;99.90
82836;DHT22;72587;50.746;8.246;2023-09-19T16:03:47;21.70;99.90
82836;DHT22;72587;50.746;8.246;2023-09-19T16:06:16;21.70;99.90
82836;DHT22;72587;50.746;8.246;2023-09-19T16:08:45;21.50;99.90
82836;DHT22;72587;50.746;8.246;2023-09-19T16:11:11;21.40;99.90
82836;DHT22;72587;50.746;8.246;2023-09-19T16:13:41;21.30;99.90
82836;DHT22;72587;50.746;8.246;2023-09-19T16:16:10;21.10;99.90
82836;DHT22;72587;50.746;8.246;2023-09-19T16:18:48;21.10;99.90
82836;DHT22;72587;50.746;8.246;2023-09-19T16:21:14;21.20;99.90
82836;DHT22;72587;50.746;8.246;2023-09-19T16:23:40;21.10;99.90